AirNav   Air Wisconsin pilot careers
 
 1025 users online  

KCDK George T Lewis Airport
Cedar Key, Florida, USA

GOING TO CEDAR KEY?


FAA INFORMATION EFFECTIVE 21 JUNE 2018

Location

FAA Identifier: CDK
Lat/Long: 29-08-03.2000N / 083-03-01.7000W
29-08.053333N / 083-03.028333W
29.1342222 / -83.0504722
(estimated)
Elevation: 11 ft. / 3.4 m (surveyed)
Variation: 02W (1985)
From city: 1 mile W of CEDAR KEY, FL
Time zone: UTC -4 (UTC -5 during Standard Time)
Zip code: 32625

Airport Operations

Airport use: Open to the public
Activation date: 04/1940
Control tower: no
ARTCC: JACKSONVILLE CENTER
FSS: GAINESVILLE FLIGHT SERVICE STATION
NOTAMs facility: GNV (NOTAM-D service available)
Attendance: UNATNDD
Wind indicator: lighted, WINDSOCK ON NON-FRANGIBLE POLE.
Segmented circle: no
Lights: ACTVT MIRL RY 05/23 - CTAF.
Beacon: white-green (lighted land airport)
Operates sunset to sunrise.

Airport Communications

CTAF: 122.9

Nearby radio navigation aids

VOR radial/distance  VOR name  Freq  Var
CTYr182/27.9CROSS CITY VORTAC112.0002W

Airport Services

Parking: tiedowns
Airframe service: NONE
Powerplant service: NONE
Bottled oxygen: NONE
Bulk oxygen: NONE

Runway Information

Runway 5/23

Dimensions: 2355 x 100 ft. / 718 x 30 m
Surface: asphalt, in fair condition
Weight bearing capacity: 
Single wheel: 12.5
Runway edge lights: medium intensity
RUNWAY 5  RUNWAY 23
Latitude: 29-07.924833N29-08.182333N
Longitude: 083-03.194667W083-02.863000W
Gradient: 0.2%0.2%
Traffic pattern: leftleft
Displaced threshold: no338 ft.
Markings: basic, in good conditionbasic, in good condition
Obstructions: none
RY 05 HAS +4 FT BUSH AT RY END.
15 ft. road, 200 ft. from runway, 1:1 slope to clear
RY 23 HAS 15 FT ROAD AT END 0F RWY.

Airport Ownership and Management from official FAA records

Ownership: Publicly-owned
Owner: LEVY COUNTY
PO BOX 310
BRONSON, FL 32621
Phone 352-486-5218
Manager: WILBUR DEAN
GEORGE T LEWIS AIRPORT, PO BOX 310
BRONSON, FL 32621
Phone (352) 486-5218
AIRPORT PHYSICAL ADDRESS: 14703 SOUTHWEST AIRPORT RD., CEDAR KEY, FL 32625

Airport Operational Statistics

Aircraft based on the field: 2
Single engine airplanes: 2
    
Aircraft operations: avg 77/week *
75% transient general aviation
25% local general aviation
* for 12-month period ending 12 December 2016

Additional Remarks

SEA GULLS ON RY.
TWY CLSD TO ACFT, USED AS PUBLIC ROAD.
4 FT FENCE 125 FT FM RY CENTERLINE LOCATED 400 FT 'NE' OF RY 23 THRLD & PARRALLEL TO PUBLIC ROAD.

Instrument Procedures

There are no published instrument procedures at KCDK.

Some nearby airports with instrument procedures:

KCGC - Crystal River Airport-Captain Tom Davis Field (30 nm SE)
KCTY - Cross City Airport (30 nm N)
X60 - Williston Municipal Airport (33 nm NE)
X35 - Marion County Airport (36 nm E)
KINF - Inverness Airport (43 nm SE)
 
Loc | Ops | Rwys | IFR | FBO | Links
Com | Nav | Svcs | Stats | Notes

AirNav Hotels Sweepstakes
 
Area around KCDK (George T Lewis Airport)
 
Road maps at: MapQuest Bing Google
 
Aerial photo
WARNING: Photo may not be current or correct
Aerial photo of KCDK (George T Lewis Airport)
Photo by William A. Ibarra
AviatorServices.com
Photo taken 25-Jan-2017
looking west-northwest.

Do you have a better or more recent aerial photo of George T Lewis Airport that you would like to share? If so, please send us your photo.

 
Sectional chart

 
Airport distance calculator
Flying to George T Lewis Airport? Find the distance to fly.

From to KCDK

Sunrise and sunset
Times for 23-Jun-2018
 Local
(UTC-4)
 Zulu
(UTC)
Morning civil twilight06:0810:08
Sunrise06:3510:35
Sunset20:3400:34
Evening civil twilight21:0101:01

Current date and time
Zulu (UTC)  23-Jun-2018 18:58:09
Local (UTC-4)  23-Jun-2018 14:58:09
 
METAR
KCTY 
25nm N 
231835Z AUTO 27008KT 10SM SCT040 33/22 A2999 RMK AO2 T03270223
KCGC 
30nm SE 
231855Z AUTO 28009KT 10SM SCT021 SCT031 SCT039 31/24 A3001 RMK AO2
KX60 
33nm NE 
118.425 352-528-9949
231855Z AUTO 27007G12KT 240V300 10SM CLR 35/25 A2998 RMK A01
KINF 
43nm SE 
231835Z AUTO 25007KT 190V280 7SM SCT041 SCT050 SCT070 32/25 A3000 RMK AO2
KOCF 
44nm E 
231851Z 28010G16KT 10SM SCT037 29/24 A3000 RMK AO2 SLP159 T02940239 $
TAF
NOTAMs
Click for the latest NOTAMs
NOTAMs are issued by the DoD/FAA and will open in a separate window not controlled by AirNav.

 

 
 

Getting Around: Taxi, Limo, Rental Cars, Mass Transit

  
 Business Name 
 
 Contact 
 
Services / Description
 
Comments
  
Judy's Airport Taxi 352-949-2127 Ground transportation

More info about Judy's Airport Taxi
 
   write
 

Would you like to see your business listed on this page?

 If your business provides an interesting product or service to pilots, flight crews, aircraft, or users of the George T Lewis Airport, you should consider listing it here.  To start the listing process, click on the button below
 
Add a business
 

Other Pages about George T Lewis Airport

Friends of the Cedar Key Airport
 
Update a link
 
Copyright © AirNav, LLC. All rights reserved. Privacy Policy  Contact